Latest Weather Observations for Albury

IDN60801

Issued at 5:03 am EST Saturday 1 August 2015 (issued every 30 minutes, with the page automatically refreshed every 10 minutes)

About weather observations | Map of weather stations | Latest weather observations for NSW | Other Formats
Station Details ID: 072160 Name: ALBURY AIRPORT AWS Lat: -36.07 Lon: 146.95 Height: 163.5 m
Data from the previous 72 hours. | See also: Recent months at Albury
Date/Time
EST
Temp
°C
App
Temp
°C
Dew
Point
Rel
Hum
%
Delta-T
°C
Wind Press
QNH
hPa
Press
MSL
hPa
Rain
since 9 am
mm
Dir
 
Spd
km/h
Gust
km/h
Spd
kts
Gust
kts
01/05:00am 5.7 4.6 5.3 97 0.2 CALM 0 0 0 0 1015.9 1016.2 0.0
01/04:30am 5.5 4.4 5.1 97 0.2 CALM 0 0 0 0 1016.0 1016.3 0.0
01/04:00am 5.6 4.5 5.3 98 0.1 CALM 0 0 0 0 1016.0 1016.3 0.0
01/03:30am 5.2 2.9 4.9 98 0.1 S 6 7 3 4 1016.5 1016.8 0.0
01/03:00am 5.0 3.1 4.7 98 0.1 SSE 4 7 2 4 1017.1 1017.4 0.0
01/02:30am 4.8 3.6 4.5 98 0.1 CALM 0 0 0 0 1017.8 1018.1 0.0
01/02:00am 4.8 3.6 4.5 98 0.1 CALM 0 0 0 0 1018.0 1018.3 0.0
01/01:30am 4.5 3.2 3.9 96 0.3 CALM 0 0 0 0 1018.8 1019.1 0.0
01/01:00am 4.2 2.8 3.5 95 0.3 CALM 0 0 0 0 1019.3 1019.6 0.0
01/12:30am 4.2 2.8 3.5 95 0.3 CALM 0 0 0 0 1019.6 1020.0 0.0
01/12:00am 4.2 2.8 3.5 95 0.3 CALM 0 0 0 0 1019.7 1020.1 0.0
 
Date/Time
EST
Temp
°C
App
Temp
°C
Dew
Point
Rel
Hum
%
Delta-T
°C
Wind Press
QNH
hPa
Press
MSL
hPa
Rain
since 9 am
mm
Dir
 
Spd
km/h
Gust
km/h
Spd
kts
Gust
kts
31/11:30pm 4.2 2.8 3.5 95 0.3 CALM 0 0 0 0 1019.9 1020.3 0.0
31/11:00pm 4.3 2.9 3.4 94 0.4 CALM 0 0 0 0 1020.3 1020.7 0.0
31/10:30pm 4.7 3.4 4.0 95 0.3 CALM 0 0 0 0 1020.4 1020.8 0.0
31/10:00pm 4.2 2.7 3.2 93 0.4 CALM 0 0 0 0 1021.0 1021.4 0.0
31/09:30pm 4.5 3.1 3.8 95 0.3 CALM 0 0 0 0 1021.2 1021.6 0.0
31/09:00pm 3.9 2.4 2.9 93 0.4 CALM 0 0 0 0 1021.1 1021.5 0.0
31/08:30pm 4.6 3.2 3.4 92 0.5 CALM 0 0 0 0 1020.9 1021.3 0.0
31/08:00pm 5.0 3.6 3.5 90 0.6 CALM 0 0 0 0 1020.6 1021.0 0.0
31/07:30pm 5.9 3.4 3.9 87 0.9 E 6 7 3 4 1020.3 1020.7 0.0
31/07:00pm 7.0 4.9 4.0 81 1.3 NE 4 7 2 4 1020.0 1020.4 0.0
31/06:30pm 9.0 7.0 4.6 74 2.0 NNE 4 6 2 3 1019.8 1020.2 0.0
31/06:00pm 9.7 7.2 4.7 71 2.2 NNW 7 9 4 5 1019.4 1019.8 0.0
31/05:30pm 10.0 6.7 4.4 68 2.5 N 11 13 6 7 1019.2 1019.5 0.0
31/05:00pm 11.5 7.8 4.7 63 3.1 NNW 13 17 7 9 1019.3 1019.6 0.0
31/04:30pm 12.2 8.6 4.9 61 3.4 N 13 20 7 11 1019.3 1019.6 0.0
31/04:00pm 13.0 9.4 5.2 59 3.6 N 13 17 7 9 1019.2 1019.5 0.0
31/03:30pm 13.2 9.1 4.6 56 4.0 NNE 15 20 8 11 1019.4 1019.8 0.0
31/03:00pm 13.6 10.3 4.7 55 4.1 N 11 19 6 10 1019.4 1019.8 0.0
31/02:30pm 13.7 11.2 4.8 55 4.2 NE 7 15 4 8 1019.5 1019.9 0.0
31/02:00pm 12.7 10.5 6.1 64 3.1 WNW 7 13 4 7 1019.8 1020.2 0.0
31/01:30pm 12.6 10.9 5.8 63 3.2 WNW 4 9 2 5 1020.2 1020.6 0.0
31/01:00pm 12.4 10.5 4.9 60 3.5 SSW 4 7 2 4 1020.5 1020.9 0.0
31/12:30pm 12.3 11.0 5.9 65 3.0 ESE 2 9 1 5 1020.5 1020.9 0.0
31/12:21pm 12.5 10.4 6.5 67 2.9 NE 7 11 4 6 1020.6 1021.0 0.0
31/12:00pm 13.0 10.9 6.8 66 3.0 W 7 13 4 7 1021.2 1021.6 0.0
31/11:58am 12.8 10.4 6.8 67 2.9 W 9 13 5 7 1021.2 1021.6 0.0
31/11:45am 12.8 10.6 6.4 65 3.1 WSW 7 11 4 6 1021.3 1021.7 0.0
31/11:30am 12.6 10.1 6.6 67 2.9 WSW 9 13 5 7 1021.4 1021.8 0.0
31/11:00am 12.6 10.7 6.6 67 2.9 E 6 13 3 7 1021.6 1022.0 0.0
31/10:55am 12.4 10.6 7.1 70 2.6 SE 6 13 3 7 1021.5 1021.9 0.0
31/10:30am 11.6 9.7 6.7 72 2.3 WNW 6 11 3 6 1021.6 1022.0 0.0
31/10:00am 11.4 10.6 6.3 71 2.4 CALM 0 0 0 0 1021.2 1021.6 0.0
31/09:30am 11.0 9.5 6.7 75 2.0 WNW 4 9 2 5 1021.2 1021.6 0.0
31/09:00am 9.7 8.8 6.1 78 1.7 CALM 0 0 0 0 1021.0 1021.4 0.2
31/08:30am 9.3 8.5 6.4 82 1.4 CALM 0 0 0 0 1020.7 1021.1 0.2
31/08:00am 8.3 7.2 6.9 91 0.7 ENE 2 6 1 3 1020.3 1020.7 0.2
31/07:30am 7.5 6.7 6.6 94 0.4 CALM 0 0 0 0 1020.0 1020.4 0.2
31/07:24am 7.6 6.4 6.4 92 0.6 NNW 2 6 1 3 1020.0 1020.4 0.2
31/07:00am 8.0 5.9 6.6 91 0.6 WSW 7 9 4 5 1019.7 1020.1 0.2
31/06:30am 8.2 5.8 6.8 91 0.7 WSW 9 11 5 6 1019.3 1019.6 0.2
31/06:00am 8.2 7.5 7.0 92 0.6 CALM 0 0 0 0 1018.9 1019.2 0.2
31/05:30am 8.1 6.2 6.9 92 0.6 WSW 6 7 3 4 1018.8 1019.1 0.2
31/05:24am 8.1 6.1 6.9 92 0.6 WSW 7 7 4 4 1018.8 1019.1 0.2
31/05:00am 8.1 7.4 7.0 93 0.5 CALM 0 0 0 0 1018.6 1018.9 0.2
31/04:30am 7.7 7.0 6.8 94 0.4 CALM 0 0 0 0 1018.3 1018.6 0.2
31/04:00am 7.9 7.2 6.8 93 0.5 CALM 0 0 0 0 1018.2 1018.5 0.2
31/03:30am 7.9 7.2 6.8 93 0.5 CALM 0 0 0 0 1018.4 1018.7 0.2
31/03:00am 7.8 7.0 6.3 90 0.7 CALM 0 0 0 0 1018.6 1018.9 0.2
31/02:30am 8.2 5.8 7.0 92 0.6 SSE 9 11 5 6 1018.8 1019.1 0.2
31/02:00am 8.5 7.7 6.5 87 0.9 CALM 0 0 0 0 1018.8 1019.1 0.2
31/01:30am 8.9 7.7 6.5 85 1.1 S 2 6 1 3 1018.8 1019.1 0.2
31/01:00am 8.4 7.7 7.0 91 0.7 CALM 0 0 0 0 1018.8 1019.1 0.2
31/12:30am 8.2 7.6 7.3 94 0.4 CALM 0 0 0 0 1019.2 1019.5 0.2
31/12:00am 8.1 7.4 6.9 92 0.6 CALM 0 4 0 2 1019.6 1020.0 0.2
 
Date/Time
EST
Temp
°C
App
Temp
°C
Dew
Point
Rel
Hum
%
Delta-T
°C
Wind Press
QNH
hPa
Press
MSL
hPa
Rain
since 9 am
mm
Dir
 
Spd
km/h
Gust
km/h
Spd
kts
Gust
kts
30/11:30pm 8.4 6.5 6.9 90 0.7 NNE 6 9 3 5 1019.9 1020.3 0.2
30/11:00pm 8.2 7.1 6.7 90 0.7 E 2 9 1 5 1020.3 1020.7 0.2
30/10:30pm 8.9 7.4 6.7 86 1.0 ENE 4 7 2 4 1020.5 1020.9 0.0
30/10:00pm 8.8 7.5 5.9 82 1.3 N 2 6 1 3 1020.6 1021.0 0.0
30/09:30pm 9.3 7.1 6.0 80 1.5 NE 7 9 4 5 1020.4 1020.8 0.0
30/09:00pm 8.7 6.5 6.2 84 1.2 NE 7 13 4 7 1020.5 1020.9 0.0
30/08:30pm 9.1 7.4 5.7 79 1.6 W 4 7 2 4 1020.7 1021.1 0.0
30/08:00pm 9.4 7.6 5.6 77 1.7 WSW 4 7 2 4 1020.5 1020.9 0.0
30/07:30pm 9.6 8.2 5.6 76 1.8 ENE 2 9 1 5 1019.7 1020.1 0.0
30/07:00pm 10.0 7.8 5.4 73 2.1 ENE 6 11 3 6 1019.9 1020.3 0.0
30/06:30pm 10.1 7.3 5.3 72 2.2 N 9 13 5 7 1020.0 1020.4 0.0
30/06:00pm 10.3 7.5 5.1 70 2.4 NNW 9 13 5 7 1019.9 1020.3 0.0
30/05:30pm 10.5 6.9 5.1 69 2.5 NNW 13 19 7 10 1020.3 1020.7 0.0
30/05:00pm 10.9 6.9 5.0 67 2.7 NNW 15 20 8 11 1020.4 1020.8 0.0
30/04:30pm 11.1 7.6 5.4 68 2.6 NNW 13 17 7 9 1020.5 1020.9 0.0
30/04:00pm 11.3 7.0 5.2 66 2.8 N 17 22 9 12 1020.6 1021.0 0.0
30/03:30pm 11.7 6.8 5.1 64 3.1 NNW 20 26 11 14 1020.8 1021.2 0.0
30/03:00pm 11.9 7.2 5.3 64 3.1 NNW 19 24 10 13 1020.7 1021.1 0.0
30/02:30pm 11.9 7.5 4.9 62 3.2 N 17 24 9 13 1020.5 1020.9 0.0
30/02:00pm 12.3 8.9 6.1 66 2.9 N 13 20 7 11 1021.3 1021.7 0.0
30/01:30pm 11.9 8.8 5.5 65 3.0 N 11 17 6 9 1022.0 1022.4 0.0
30/01:00pm 11.8 7.5 5.4 65 3.0 N 17 22 9 12 1023.0 1023.3 0.0
30/12:30pm 11.8 7.9 5.4 65 3.0 N 15 19 8 10 1023.6 1023.9 0.0
30/12:00pm 11.4 7.8 4.8 64 3.0 NE 13 24 7 13 1023.7 1024.0 0.0
30/11:30am 11.1 8.4 5.4 68 2.6 ENE 9 17 5 9 1024.6 1025.0 0.0
30/11:00am 10.4 7.8 6.2 75 2.0 E 9 13 5 7 1025.3 1025.7 0.0
30/10:30am 9.5 7.4 5.7 77 1.8 ENE 6 9 3 5 1025.6 1026.0 0.0
30/10:00am 9.1 7.8 5.8 80 1.5 N 2 6 1 3 1025.7 1026.1 0.0
30/09:30am 8.8 7.2 6.4 85 1.1 ENE 4 7 2 4 1025.4 1025.8 0.0
30/09:00am 7.1 5.0 5.6 90 0.7 ESE 6 7 3 4 1025.6 1026.0 0.0
30/08:30am 7.2 5.9 6.1 93 0.5 ESE 2 6 1 3 1025.8 1026.2 0.0
30/08:00am 6.0 5.1 5.9 99 0.0 CALM 0 0 0 0 1026.0 1026.4 0.0
30/07:30am 5.5 4.5 5.4 99 0.0 CALM 0 0 0 0 1026.2 1026.6 0.0
30/07:00am 5.3 4.2 5.2 99 0.0 CALM 0 0 0 0 1026.3 1026.7 0.0
30/06:30am 5.2 4.1 5.1 99 0.0 CALM 0 0 0 0 1026.3 1026.7 0.0
30/06:00am 5.0 3.5 4.9 99 0.0 S 2 6 1 3 1026.3 1026.7 0.0
30/05:30am 4.7 3.1 4.6 99 0.0 NE 2 6 1 3 1026.4 1026.8 0.0
30/05:00am 4.6 3.4 4.5 99 0.0 CALM 0 0 0 0 1026.4 1026.8 0.0
30/04:30am 4.3 3.0 4.2 99 0.0 CALM 0 0 0 0 1026.5 1026.9 0.0
30/04:00am 4.2 2.9 4.1 99 0.0 CALM 0 0 0 0 1026.8 1027.2 0.0
30/03:30am 3.9 2.5 3.8 99 0.0 CALM 0 0 0 0 1027.3 1027.7 0.0
30/03:00am 3.7 2.3 3.4 98 0.1 CALM 0 0 0 0 1027.6 1028.0 0.0
30/02:30am 4.0 2.7 3.9 99 0.0 CALM 0 6 0 3 1027.7 1028.1 0.0
30/02:00am 4.2 2.9 3.9 98 0.1 CALM 0 0 0 0 1028.2 1028.6 0.0
30/01:43am 4.2 2.9 3.9 98 0.1 CALM 0 0 0 0 1028.4 1028.8 0.0
30/01:30am 3.8 2.3 3.2 96 0.2 CALM 0 0 0 0 1028.6 1028.9 0.0
30/01:24am 3.9 2.5 3.5 97 0.2 CALM 0 0 0 0 1028.7 1029.0 0.0
30/01:00am 4.3 2.9 3.7 96 0.2 CALM 0 0 0 0 1028.8 1029.1 0.0
30/12:30am 5.0 3.8 4.4 96 0.3 CALM 0 7 0 4 1029.0 1029.3 0.0
30/12:00am 5.1 3.5 4.5 96 0.3 E 2 6 1 3 1029.4 1029.7 0.0
 
Date/Time
EST
Temp
°C
App
Temp
°C
Dew
Point
Rel
Hum
%
Delta-T
°C
Wind Press
QNH
hPa
Press
MSL
hPa
Rain
since 9 am
mm
Dir
 
Spd
km/h
Gust
km/h
Spd
kts
Gust
kts
29/11:30pm 5.4 3.1 4.7 95 0.3 ESE 6 7 3 4 1029.5 1029.8 0.0
29/11:00pm 5.3 4.0 4.3 93 0.4 CALM 0 0 0 0 1029.9 1030.3 0.0
29/10:30pm 5.3 2.9 4.4 94 0.4 W 6 9 3 5 1029.9 1030.3 0.0
29/10:00pm 6.2 5.1 5.2 93 0.4 CALM 0 0 0 0 1029.7 1030.1 0.0
29/09:30pm 5.8 4.6 4.6 92 0.5 CALM 0 0 0 0 1029.9 1030.3 0.0
29/09:00pm 6.7 4.4 4.9 88 0.8 ENE 6 9 3 5 1029.7 1030.1 0.0
29/08:30pm 6.8 5.6 4.5 85 1.0 CALM 0 0 0 0 1030.1 1030.5 0.0
29/08:00pm 7.3 6.2 5.1 86 1.0 CALM 0 0 0 0 1030.3 1030.7 0.0
29/07:30pm 7.5 6.4 5.3 86 1.0 CALM 0 0 0 0 1030.2 1030.6 0.0
29/07:00pm 6.9 4.6 4.7 86 1.0 NW 6 9 3 5 1030.2 1030.6 0.0
29/06:30pm 7.5 5.9 4.5 81 1.3 NNW 2 7 1 4 1029.7 1030.1 0.0
29/06:00pm 7.7 6.1 4.3 79 1.5 NNE 2 6 1 3 1029.8 1030.2 0.0
29/05:30pm 9.0 7.3 3.8 70 2.3 S 2 7 1 4 1029.7 1030.1 0.0
29/05:00pm 9.4 6.3 3.6 67 2.5 WSW 9 11 5 6 1030.2 1030.6 0.0
29/04:30pm 10.8 8.2 4.0 63 3.0 WSW 7 11 4 6 1030.2 1030.6 0.0
29/04:00pm 12.0 10.6 5.6 65 3.0 WNW 2 7 1 4 1030.6 1031.0 0.0
29/03:30pm 12.0 9.9 5.9 66 2.9 WSW 6 11 3 6 1030.8 1031.2 0.0
29/03:00pm 11.2 10.0 6.5 73 2.2 ENE 2 7 1 4 1030.8 1031.2 0.0
29/02:30pm 10.8 8.7 5.8 71 2.3 NE 6 9 3 5 1031.0 1031.4 0.0
29/02:00pm 10.8 9.2 6.2 73 2.1 NW 4 9 2 5 1031.7 1032.1 0.0
29/01:30pm 10.9 8.8 6.5 74 2.1 W 7 11 4 6 1032.4 1032.8 0.0
29/01:10pm 10.0 8.8 6.3 78 1.7 SE 2 7 1 4 1032.5 1032.9 0.0
29/01:00pm 9.7 8.1 6.2 79 1.6 E 4 9 2 5 1032.4 1032.8 0.0
29/12:52pm 9.5 7.3 6.4 81 1.5 S 7 9 4 5 1032.6 1033.0 0.0
29/12:37pm 8.8 6.9 6.6 86 1.0 S 6 9 3 5 1033.1 1033.5 0.0
29/12:30pm 8.3 6.2 5.9 85 1.1 S 6 9 3 5 1033.2 1033.6 0.0
29/12:00pm 8.1 6.6 6.6 90 0.7 SE 4 11 2 6 1033.5 1033.9 0.0
29/11:30am 7.1 5.9 6.4 95 0.3 ESE 2 7 1 4 1034.7 1035.2 0.0
29/11:00am 6.4 4.2 6.3 99 0.0 ENE 7 11 4 6 1035.0 1035.4 0.0
29/10:30am 5.6 2.9 5.5 99 0.0 ESE 9 13 5 7 1035.4 1035.8 0.0
29/10:00am 5.3 1.7 5.2 99 0.0 E 13 17 7 9 1035.2 1035.6 0.0
29/09:46am 4.9 1.3 4.8 99 0.0 E 13 17 7 9 1035.2 1035.6 0.0
29/09:30am 4.6 1.7 4.5 99 0.0 SE 9 11 5 6 1035.3 1035.7 0.0
29/09:19am 4.6 2.1 4.5 99 0.0 SE 7 9 4 5 1035.4 1035.8 0.0
29/09:09am 4.5 1.6 4.4 99 0.0 E 9 15 5 8 1035.4 1035.8 0.0
29/09:00am 4.5 1.6 4.4 99 0.0 E 9 13 5 7 1035.2 1035.6 0.0
29/08:30am 3.9 0.8 3.8 99 0.0 SE 9 11 5 6 1035.2 1035.6 0.0
29/08:00am 3.9 0.8 3.8 99 0.0 ESE 9 15 5 8 1035.0 1035.4 0.0
29/07:30am 4.1 2.4 4.0 99 0.0 NNE 2 6 1 3 1035.1 1035.5 0.0
29/07:00am 4.0 2.7 3.9 99 0.0 CALM 0 0 0 0 1034.6 1035.1 0.0
29/06:30am 4.1 2.8 4.0 99 0.0 CALM 0 2 0 1 1034.3 1034.7 0.0
29/06:00am 3.7 1.2 3.6 99 0.0 NE 6 7 3 4 1034.0 1034.4 0.0
29/05:30am 3.8 1.3 3.7 99 0.0 ENE 6 7 3 4 1033.8 1034.2 0.0

Other Formats:

Comma delimited format used in spreadsheet applications
http://www.bom.gov.au/fwo/IDN60801/IDN60801.95896.axf

JavaScript Object Notation format (JSON) in row-major order
http://www.bom.gov.au/fwo/IDN60801/IDN60801.95896.json